sensor_id;sensor_type;location;lat;lon;timestamp;temperature;humidity
20831;DHT22;10576;53.556;9.868;2023-03-13T00:12:32;6.70;99.90
20831;DHT22;10576;53.556;9.868;2023-03-13T00:17:24;6.90;99.90
20831;DHT22;10576;53.556;9.868;2023-03-13T00:32:00;6.80;99.90
20831;DHT22;10576;53.556;9.868;2023-03-13T00:36:52;6.80;99.90
20831;DHT22;10576;53.556;9.868;2023-03-13T00:41:45;6.90;99.90
20831;DHT22;10576;53.556;9.868;2023-03-13T00:51:30;6.90;99.90
20831;DHT22;10576;53.556;9.868;2023-03-13T00:53:57;7.20;99.90
20831;DHT22;10576;53.556;9.868;2023-03-13T00:58:51;6.90;99.90
20831;DHT22;10576;53.556;9.868;2023-03-13T01:01:23;7.00;99.90
20831;DHT22;10576;53.556;9.868;2023-03-13T01:03:54;6.80;99.90
20831;DHT22;10576;53.556;9.868;2023-03-13T01:06:26;7.00;99.90
20831;DHT22;10576;53.556;9.868;2023-03-13T01:08:53;6.90;99.90
20831;DHT22;10576;53.556;9.868;2023-03-13T01:13:47;7.20;99.90
20831;DHT22;10576;53.556;9.868;2023-03-13T01:16:16;7.30;99.90
20831;DHT22;10576;53.556;9.868;2023-03-13T01:18:44;7.30;99.90
20831;DHT22;10576;53.556;9.868;2023-03-13T01:21:12;7.20;99.90
20831;DHT22;10576;53.556;9.868;2023-03-13T01:23:38;7.30;99.90
20831;DHT22;10576;53.556;9.868;2023-03-13T01:26:05;7.30;99.90
20831;DHT22;10576;53.556;9.868;2023-03-13T01:28:31;7.30;99.90
20831;DHT22;10576;53.556;9.868;2023-03-13T01:30:58;7.30;99.90
20831;DHT22;10576;53.556;9.868;2023-03-13T01:33:24;7.20;99.90
20831;DHT22;10576;53.556;9.868;2023-03-13T01:35:49;7.30;99.90
20831;DHT22;10576;53.556;9.868;2023-03-13T01:38:15;7.30;99.90
20831;DHT22;10576;53.556;9.868;2023-03-13T01:40:42;7.00;99.90
20831;DHT22;10576;53.556;9.868;2023-03-13T01:43:18;7.20;99.90
20831;DHT22;10576;53.556;9.868;2023-03-13T01:46:02;7.30;99.90
20831;DHT22;10576;53.556;9.868;2023-03-13T01:48:30;6.10;99.90
20831;DHT22;10576;53.556;9.868;2023-03-13T01:51:00;7.20;99.90
20831;DHT22;10576;53.556;9.868;2023-03-13T01:53:29;7.30;99.90
20831;DHT22;10576;53.556;9.868;2023-03-13T01:55:56;7.30;99.90
20831;DHT22;10576;53.556;9.868;2023-03-13T01:58:25;7.30;99.90
20831;DHT22;10576;53.556;9.868;2023-03-13T02:00:52;7.30;99.90
20831;DHT22;10576;53.556;9.868;2023-03-13T02:03:19;7.10;99.90
20831;DHT22;10576;53.556;9.868;2023-03-13T02:08:52;7.10;99.90
20831;DHT22;10576;53.556;9.868;2023-03-13T02:14:18;7.20;99.90
20831;DHT22;10576;53.556;9.868;2023-03-13T02:16:45;7.20;99.90
20831;DHT22;10576;53.556;9.868;2023-03-13T02:24:54;7.30;99.90
20831;DHT22;10576;53.556;9.868;2023-03-13T02:27:21;7.10;99.90
20831;DHT22;10576;53.556;9.868;2023-03-13T02:29:47;7.30;99.90
20831;DHT22;10576;53.556;9.868;2023-03-13T02:32:14;7.20;99.90
20831;DHT22;10576;53.556;9.868;2023-03-13T02:34:41;7.40;99.90
20831;DHT22;10576;53.556;9.868;2023-03-13T02:37:08;7.30;99.90
20831;DHT22;10576;53.556;9.868;2023-03-13T02:39:41;7.30;99.90
20831;DHT22;10576;53.556;9.868;2023-03-13T02:42:08;7.30;99.90
20831;DHT22;10576;53.556;9.868;2023-03-13T02:44:40;7.40;99.90
20831;DHT22;10576;53.556;9.868;2023-03-13T02:47:06;7.30;99.90
20831;DHT22;10576;53.556;9.868;2023-03-13T02:49:34;7.30;99.90
20831;DHT22;10576;53.556;9.868;2023-03-13T02:52:16;7.50;99.90
20831;DHT22;10576;53.556;9.868;2023-03-13T02:54:44;7.20;99.90
20831;DHT22;10576;53.556;9.868;2023-03-13T02:57:11;7.30;99.90
20831;DHT22;10576;53.556;9.868;2023-03-13T02:59:37;7.30;99.90
20831;DHT22;10576;53.556;9.868;2023-03-13T03:02:03;7.40;99.90
20831;DHT22;10576;53.556;9.868;2023-03-13T03:04:29;7.30;99.90
20831;DHT22;10576;53.556;9.868;2023-03-13T03:06:55;7.40;99.90
20831;DHT22;10576;53.556;9.868;2023-03-13T03:09:21;7.40;99.90
20831;DHT22;10576;53.556;9.868;2023-03-13T03:11:46;7.40;99.90
20831;DHT22;10576;53.556;9.868;2023-03-13T03:14:12;7.40;99.90
20831;DHT22;10576;53.556;9.868;2023-03-13T03:16:38;7.40;99.90
20831;DHT22;10576;53.556;9.868;2023-03-13T03:21:34;7.30;99.90
20831;DHT22;10576;53.556;9.868;2023-03-13T03:24:00;7.40;99.90
20831;DHT22;10576;53.556;9.868;2023-03-13T03:26:25;7.40;99.90
20831;DHT22;10576;53.556;9.868;2023-03-13T03:31:17;7.30;99.90
20831;DHT22;10576;53.556;9.868;2023-03-13T03:33:43;7.50;99.90
20831;DHT22;10576;53.556;9.868;2023-03-13T03:36:12;7.50;99.90
20831;DHT22;10576;53.556;9.868;2023-03-13T03:38:39;7.50;99.90
20831;DHT22;10576;53.556;9.868;2023-03-13T03:41:09;7.50;99.90
20831;DHT22;10576;53.556;9.868;2023-03-13T03:43:35;7.50;99.90
20831;DHT22;10576;53.556;9.868;2023-03-13T03:46:01;7.60;99.90
20831;DHT22;10576;53.556;9.868;2023-03-13T03:48:27;7.60;99.90
20831;DHT22;10576;53.556;9.868;2023-03-13T03:50:53;7.40;99.90
20831;DHT22;10576;53.556;9.868;2023-03-13T03:53:19;7.50;99.90
20831;DHT22;10576;53.556;9.868;2023-03-13T03:55:45;7.40;99.90
20831;DHT22;10576;53.556;9.868;2023-03-13T03:58:11;7.60;99.90
20831;DHT22;10576;53.556;9.868;2023-03-13T04:00:37;7.40;99.90
20831;DHT22;10576;53.556;9.868;2023-03-13T04:03:03;7.60;99.90
20831;DHT22;10576;53.556;9.868;2023-03-13T04:05:29;7.60;99.90
20831;DHT22;10576;53.556;9.868;2023-03-13T04:07:54;7.50;99.90
20831;DHT22;10576;53.556;9.868;2023-03-13T04:10:20;7.60;99.90
20831;DHT22;10576;53.556;9.868;2023-03-13T04:12:46;7.50;99.90
20831;DHT22;10576;53.556;9.868;2023-03-13T04:15:12;7.60;99.90
20831;DHT22;10576;53.556;9.868;2023-03-13T04:22:30;7.50;99.90
20831;DHT22;10576;53.556;9.868;2023-03-13T04:24:56;7.60;99.90
20831;DHT22;10576;53.556;9.868;2023-03-13T04:27:22;7.60;99.90
20831;DHT22;10576;53.556;9.868;2023-03-13T04:29:47;7.60;99.90
20831;DHT22;10576;53.556;9.868;2023-03-13T04:32:13;7.70;99.90
20831;DHT22;10576;53.556;9.868;2023-03-13T04:34:38;7.70;99.90
20831;DHT22;10576;53.556;9.868;2023-03-13T04:37:04;7.70;99.90
20831;DHT22;10576;53.556;9.868;2023-03-13T04:39:30;7.60;99.90
20831;DHT22;10576;53.556;9.868;2023-03-13T04:41:55;7.30;99.90
20831;DHT22;10576;53.556;9.868;2023-03-13T04:44:22;7.70;99.90
20831;DHT22;10576;53.556;9.868;2023-03-13T04:49:15;7.70;99.90
20831;DHT22;10576;53.556;9.868;2023-03-13T04:51:42;7.70;99.90
20831;DHT22;10576;53.556;9.868;2023-03-13T04:54:07;7.60;99.90
20831;DHT22;10576;53.556;9.868;2023-03-13T04:56:33;7.70;99.90
20831;DHT22;10576;53.556;9.868;2023-03-13T04:58:59;7.60;99.90
20831;DHT22;10576;53.556;9.868;2023-03-13T05:01:25;7.60;99.90
20831;DHT22;10576;53.556;9.868;2023-03-13T05:03:50;7.80;99.90
20831;DHT22;10576;53.556;9.868;2023-03-13T05:06:16;7.90;99.90
20831;DHT22;10576;53.556;9.868;2023-03-13T05:08:42;8.00;99.90
20831;DHT22;10576;53.556;9.868;2023-03-13T05:11:08;7.80;99.90
20831;DHT22;10576;53.556;9.868;2023-03-13T05:13:34;7.80;99.90
20831;DHT22;10576;53.556;9.868;2023-03-13T05:15:59;7.80;99.90
20831;DHT22;10576;53.556;9.868;2023-03-13T05:18:25;7.70;99.90
20831;DHT22;10576;53.556;9.868;2023-03-13T05:20:51;8.00;99.90
20831;DHT22;10576;53.556;9.868;2023-03-13T05:25:43;7.80;99.90
20831;DHT22;10576;53.556;9.868;2023-03-13T05:28:09;8.00;99.90
20831;DHT22;10576;53.556;9.868;2023-03-13T05:30:34;8.10;99.90
20831;DHT22;10576;53.556;9.868;2023-03-13T05:33:00;8.10;99.90
20831;DHT22;10576;53.556;9.868;2023-03-13T05:35:26;7.90;99.90
20831;DHT22;10576;53.556;9.868;2023-03-13T05:37:51;8.10;99.90
20831;DHT22;10576;53.556;9.868;2023-03-13T05:40:17;8.00;99.90
20831;DHT22;10576;53.556;9.868;2023-03-13T05:42:44;8.00;99.90
20831;DHT22;10576;53.556;9.868;2023-03-13T05:45:10;8.10;99.90
20831;DHT22;10576;53.556;9.868;2023-03-13T05:47:37;7.90;99.90
20831;DHT22;10576;53.556;9.868;2023-03-13T05:50:04;7.90;99.90
20831;DHT22;10576;53.556;9.868;2023-03-13T05:52:31;8.10;99.90
20831;DHT22;10576;53.556;9.868;2023-03-13T05:54:57;7.70;99.90
20831;DHT22;10576;53.556;9.868;2023-03-13T05:57:22;8.00;99.90
20831;DHT22;10576;53.556;9.868;2023-03-13T05:59:48;8.10;99.90
20831;DHT22;10576;53.556;9.868;2023-03-13T06:02:14;7.90;99.90
20831;DHT22;10576;53.556;9.868;2023-03-13T06:04:39;8.20;99.90
20831;DHT22;10576;53.556;9.868;2023-03-13T06:07:05;8.10;99.90
20831;DHT22;10576;53.556;9.868;2023-03-13T06:09:31;8.20;99.90
20831;DHT22;10576;53.556;9.868;2023-03-13T06:11:56;8.20;99.90
20831;DHT22;10576;53.556;9.868;2023-03-13T06:14:22;8.00;99.90
20831;DHT22;10576;53.556;9.868;2023-03-13T06:16:48;8.10;99.90
20831;DHT22;10576;53.556;9.868;2023-03-13T06:19:13;8.10;99.90
20831;DHT22;10576;53.556;9.868;2023-03-13T06:21:39;8.20;99.90
20831;DHT22;10576;53.556;9.868;2023-03-13T06:24:05;8.20;99.90
20831;DHT22;10576;53.556;9.868;2023-03-13T06:26:31;8.10;99.90
20831;DHT22;10576;53.556;9.868;2023-03-13T06:28:57;8.30;99.90
20831;DHT22;10576;53.556;9.868;2023-03-13T06:33:54;8.40;99.90
20831;DHT22;10576;53.556;9.868;2023-03-13T06:41:15;8.50;99.90
20831;DHT22;10576;53.556;9.868;2023-03-13T06:43:42;8.40;99.90
20831;DHT22;10576;53.556;9.868;2023-03-13T06:46:18;8.40;99.90
20831;DHT22;10576;53.556;9.868;2023-03-13T06:48:44;8.40;99.90
20831;DHT22;10576;53.556;9.868;2023-03-13T06:51:15;8.70;99.90
20831;DHT22;10576;53.556;9.868;2023-03-13T06:56:09;8.60;99.90
20831;DHT22;10576;53.556;9.868;2023-03-13T07:01:13;8.70;99.90
20831;DHT22;10576;53.556;9.868;2023-03-13T07:03:39;8.70;99.90
20831;DHT22;10576;53.556;9.868;2023-03-13T07:06:10;8.80;99.90
20831;DHT22;10576;53.556;9.868;2023-03-13T07:11:05;8.60;99.90
20831;DHT22;10576;53.556;9.868;2023-03-13T07:20:57;9.00;99.90
20831;DHT22;10576;53.556;9.868;2023-03-13T07:23:23;8.80;99.90
20831;DHT22;10576;53.556;9.868;2023-03-13T07:28:39;9.20;99.90
20831;DHT22;10576;53.556;9.868;2023-03-13T07:31:13;8.80;99.90
20831;DHT22;10576;53.556;9.868;2023-03-13T07:33:40;8.70;99.90
20831;DHT22;10576;53.556;9.868;2023-03-13T07:43:24;9.20;99.90
20831;DHT22;10576;53.556;9.868;2023-03-13T07:45:55;9.20;99.90
20831;DHT22;10576;53.556;9.868;2023-03-13T07:53:14;9.40;99.90
20831;DHT22;10576;53.556;9.868;2023-03-13T07:56:02;9.60;99.90
20831;DHT22;10576;53.556;9.868;2023-03-13T07:58:31;9.40;99.90
20831;DHT22;10576;53.556;9.868;2023-03-13T08:00:57;9.50;99.90
20831;DHT22;10576;53.556;9.868;2023-03-13T08:03:24;9.40;99.90
20831;DHT22;10576;53.556;9.868;2023-03-13T08:06:11;9.60;99.90
20831;DHT22;10576;53.556;9.868;2023-03-13T08:08:37;10.00;99.90
20831;DHT22;10576;53.556;9.868;2023-03-13T08:11:05;9.70;99.90
20831;DHT22;10576;53.556;9.868;2023-03-13T08:18:30;9.90;99.90
20831;DHT22;10576;53.556;9.868;2023-03-13T08:21:04;9.90;99.90
20831;DHT22;10576;53.556;9.868;2023-03-13T08:23:31;9.90;99.90
20831;DHT22;10576;53.556;9.868;2023-03-13T08:26:10;10.20;99.90
20831;DHT22;10576;53.556;9.868;2023-03-13T08:28:37;10.00;99.90
20831;DHT22;10576;53.556;9.868;2023-03-13T08:31:18;10.10;99.90
20831;DHT22;10576;53.556;9.868;2023-03-13T08:33:45;10.30;99.90
20831;DHT22;10576;53.556;9.868;2023-03-13T08:36:23;10.40;99.90
20831;DHT22;10576;53.556;9.868;2023-03-13T08:38:51;10.20;99.90
20831;DHT22;10576;53.556;9.868;2023-03-13T08:41:24;10.10;99.90
20831;DHT22;10576;53.556;9.868;2023-03-13T08:43:55;10.30;99.90
20831;DHT22;10576;53.556;9.868;2023-03-13T08:48:49;10.30;99.90
20831;DHT22;10576;53.556;9.868;2023-03-13T08:53:42;10.50;99.90
20831;DHT22;10576;53.556;9.868;2023-03-13T08:56:10;10.40;99.90
20831;DHT22;10576;53.556;9.868;2023-03-13T09:01:04;10.80;99.90
20831;DHT22;10576;53.556;9.868;2023-03-13T09:05:57;10.70;99.90
20831;DHT22;10576;53.556;9.868;2023-03-13T09:10:56;10.70;99.90
20831;DHT22;10576;53.556;9.868;2023-03-13T09:13:24;11.10;99.90
20831;DHT22;10576;53.556;9.868;2023-03-13T09:16:04;10.80;99.90
20831;DHT22;10576;53.556;9.868;2023-03-13T09:18:30;11.20;99.90
20831;DHT22;10576;53.556;9.868;2023-03-13T09:23:22;11.30;99.90
20831;DHT22;10576;53.556;9.868;2023-03-13T09:25:51;11.30;99.90
20831;DHT22;10576;53.556;9.868;2023-03-13T09:28:17;11.00;99.90
20831;DHT22;10576;53.556;9.868;2023-03-13T09:33:09;11.20;99.90
20831;DHT22;10576;53.556;9.868;2023-03-13T09:35:37;11.00;99.90
20831;DHT22;10576;53.556;9.868;2023-03-13T09:38:04;11.30;99.90
20831;DHT22;10576;53.556;9.868;2023-03-13T09:42:58;11.60;99.90
20831;DHT22;10576;53.556;9.868;2023-03-13T09:50:34;11.60;99.90
20831;DHT22;10576;53.556;9.868;2023-03-13T09:53:24;11.60;99.90
20831;DHT22;10576;53.556;9.868;2023-03-13T09:55:51;11.30;99.90
20831;DHT22;10576;53.556;9.868;2023-03-13T09:58:20;11.50;99.90
20831;DHT22;10576;53.556;9.868;2023-03-13T10:03:24;11.40;99.90
20831;DHT22;10576;53.556;9.868;2023-03-13T10:06:26;11.80;99.90
20831;DHT22;10576;53.556;9.868;2023-03-13T10:08:45;11.60;99.90
20831;DHT22;10576;53.556;9.868;2023-03-13T10:14:01;11.60;99.90
20831;DHT22;10576;53.556;9.868;2023-03-13T10:19:30;11.80;99.90
20831;DHT22;10576;53.556;9.868;2023-03-13T10:21:56;11.90;99.90
20831;DHT22;10576;53.556;9.868;2023-03-13T10:24:33;11.80;99.90
20831;DHT22;10576;53.556;9.868;2023-03-13T10:27:01;11.90;99.90
20831;DHT22;10576;53.556;9.868;2023-03-13T10:29:28;12.00;99.90
20831;DHT22;10576;53.556;9.868;2023-03-13T10:32:00;12.50;99.90
20831;DHT22;10576;53.556;9.868;2023-03-13T10:34:28;12.40;99.90
20831;DHT22;10576;53.556;9.868;2023-03-13T10:36:58;12.50;99.90
20831;DHT22;10576;53.556;9.868;2023-03-13T10:39:26;12.40;99.90
20831;DHT22;10576;53.556;9.868;2023-03-13T10:42:20;12.50;99.90
20831;DHT22;10576;53.556;9.868;2023-03-13T10:47:13;12.80;99.90
20831;DHT22;10576;53.556;9.868;2023-03-13T10:49:49;13.00;99.90
20831;DHT22;10576;53.556;9.868;2023-03-13T10:52:44;13.20;99.90
20831;DHT22;10576;53.556;9.868;2023-03-13T10:55:21;13.10;99.90
20831;DHT22;10576;53.556;9.868;2023-03-13T10:58:00;12.50;99.90
20831;DHT22;10576;53.556;9.868;2023-03-13T11:00:37;12.80;99.90
20831;DHT22;10576;53.556;9.868;2023-03-13T11:10:55;12.80;99.90
20831;DHT22;10576;53.556;9.868;2023-03-13T11:13:34;12.70;99.90
20831;DHT22;10576;53.556;9.868;2023-03-13T11:16:21;13.20;99.90
20831;DHT22;10576;53.556;9.868;2023-03-13T11:33:16;14.60;99.90
20831;DHT22;10576;53.556;9.868;2023-03-13T11:50:36;14.20;99.90
20831;DHT22;10576;53.556;9.868;2023-03-13T11:53:15;13.90;99.90
20831;DHT22;10576;53.556;9.868;2023-03-13T11:58:34;14.60;99.90
20831;DHT22;10576;53.556;9.868;2023-03-13T12:01:10;14.70;99.90
20831;DHT22;10576;53.556;9.868;2023-03-13T12:03:41;14.60;99.90
20831;DHT22;10576;53.556;9.868;2023-03-13T12:06:33;14.50;99.90
20831;DHT22;10576;53.556;9.868;2023-03-13T12:09:27;14.80;99.90
20831;DHT22;10576;53.556;9.868;2023-03-13T12:12:02;15.20;99.90
20831;DHT22;10576;53.556;9.868;2023-03-13T12:22:48;15.50;99.90
20831;DHT22;10576;53.556;9.868;2023-03-13T12:25:24;15.30;99.90
20831;DHT22;10576;53.556;9.868;2023-03-13T12:28:19;15.30;99.90
20831;DHT22;10576;53.556;9.868;2023-03-13T12:30:46;15.40;99.90
20831;DHT22;10576;53.556;9.868;2023-03-13T12:33:22;15.30;99.90
20831;DHT22;10576;53.556;9.868;2023-03-13T12:41:41;15.10;99.90
20831;DHT22;10576;53.556;9.868;2023-03-13T12:44:16;15.30;99.90
20831;DHT22;10576;53.556;9.868;2023-03-13T13:00:46;15.70;99.90
20831;DHT22;10576;53.556;9.868;2023-03-13T13:16:48;16.00;99.90
20831;DHT22;10576;53.556;9.868;2023-03-13T13:29:59;15.90;99.90
20831;DHT22;10576;53.556;9.868;2023-03-13T13:42:59;16.20;99.90
20831;DHT22;10576;53.556;9.868;2023-03-13T13:45:37;15.90;99.90
20831;DHT22;10576;53.556;9.868;2023-03-13T13:53:48;16.30;99.90
20831;DHT22;10576;53.556;9.868;2023-03-13T13:59:17;16.00;99.90
20831;DHT22;10576;53.556;9.868;2023-03-13T14:04:41;16.10;99.90
20831;DHT22;10576;53.556;9.868;2023-03-13T14:07:36;15.80;99.90
20831;DHT22;10576;53.556;9.868;2023-03-13T14:10:06;15.90;99.90
20831;DHT22;10576;53.556;9.868;2023-03-13T14:12:37;16.10;99.90
20831;DHT22;10576;53.556;9.868;2023-03-13T14:20:03;15.90;99.90
20831;DHT22;10576;53.556;9.868;2023-03-13T14:25:10;16.00;99.90
20831;DHT22;10576;53.556;9.868;2023-03-13T14:32:34;16.20;99.90
20831;DHT22;10576;53.556;9.868;2023-03-13T14:37:43;16.30;99.90
20831;DHT22;10576;53.556;9.868;2023-03-13T14:42:48;16.50;99.90
20831;DHT22;10576;53.556;9.868;2023-03-13T14:45:19;16.20;99.90
20831;DHT22;10576;53.556;9.868;2023-03-13T14:47:45;16.20;99.90
20831;DHT22;10576;53.556;9.868;2023-03-13T14:52:53;16.20;99.90
20831;DHT22;10576;53.556;9.868;2023-03-13T14:58:05;16.60;99.90
20831;DHT22;10576;53.556;9.868;2023-03-13T15:00:47;16.50;99.90
20831;DHT22;10576;53.556;9.868;2023-03-13T15:08:22;16.20;99.90
20831;DHT22;10576;53.556;9.868;2023-03-13T15:10:48;16.10;99.90
20831;DHT22;10576;53.556;9.868;2023-03-13T15:13:32;16.20;99.90
20831;DHT22;10576;53.556;9.868;2023-03-13T15:15:58;16.30;99.90
20831;DHT22;10576;53.556;9.868;2023-03-13T15:18:27;16.30;99.90
20831;DHT22;10576;53.556;9.868;2023-03-13T15:20:56;16.40;99.90
20831;DHT22;10576;53.556;9.868;2023-03-13T15:23:22;16.40;99.90
20831;DHT22;10576;53.556;9.868;2023-03-13T15:25:48;16.10;99.90
20831;DHT22;10576;53.556;9.868;2023-03-13T15:28:20;16.10;99.90
20831;DHT22;10576;53.556;9.868;2023-03-13T15:30:49;16.30;99.90
20831;DHT22;10576;53.556;9.868;2023-03-13T15:33:17;16.20;99.90
20831;DHT22;10576;53.556;9.868;2023-03-13T15:35:44;16.00;99.90
20831;DHT22;10576;53.556;9.868;2023-03-13T15:38:15;16.00;99.90
20831;DHT22;10576;53.556;9.868;2023-03-13T15:40:42;16.20;99.90
20831;DHT22;10576;53.556;9.868;2023-03-13T15:43:08;15.90;99.90
20831;DHT22;10576;53.556;9.868;2023-03-13T15:45:39;16.20;99.90
20831;DHT22;10576;53.556;9.868;2023-03-13T15:48:15;15.90;99.90
20831;DHT22;10576;53.556;9.868;2023-03-13T15:50:42;16.20;99.90
20831;DHT22;10576;53.556;9.868;2023-03-13T15:53:26;16.20;99.90
20831;DHT22;10576;53.556;9.868;2023-03-13T15:55:53;16.20;99.90
20831;DHT22;10576;53.556;9.868;2023-03-13T16:03:21;16.10;99.90
20831;DHT22;10576;53.556;9.868;2023-03-13T16:05:49;16.00;99.90
20831;DHT22;10576;53.556;9.868;2023-03-13T16:08:20;16.00;99.90
20831;DHT22;10576;53.556;9.868;2023-03-13T16:10:47;16.00;99.90
20831;DHT22;10576;53.556;9.868;2023-03-13T16:18:05;16.10;99.90
20831;DHT22;10576;53.556;9.868;2023-03-13T16:20:33;16.10;99.90
20831;DHT22;10576;53.556;9.868;2023-03-13T16:22:59;16.00;99.90
20831;DHT22;10576;53.556;9.868;2023-03-13T16:25:29;16.00;99.90
20831;DHT22;10576;53.556;9.868;2023-03-13T16:30:27;15.80;99.90
20831;DHT22;10576;53.556;9.868;2023-03-13T16:32:53;15.40;99.90
20831;DHT22;10576;53.556;9.868;2023-03-13T16:35:19;15.60;99.90
20831;DHT22;10576;53.556;9.868;2023-03-13T16:40:16;15.50;99.90
20831;DHT22;10576;53.556;9.868;2023-03-13T16:42:42;15.30;99.90
20831;DHT22;10576;53.556;9.868;2023-03-13T16:45:09;15.10;99.90
20831;DHT22;10576;53.556;9.868;2023-03-13T16:47:34;15.30;99.90
20831;DHT22;10576;53.556;9.868;2023-03-13T16:57:42;15.10;99.90
20831;DHT22;10576;53.556;9.868;2023-03-13T17:02:41;15.30;99.90
20831;DHT22;10576;53.556;9.868;2023-03-13T17:07:34;15.00;99.90
20831;DHT22;10576;53.556;9.868;2023-03-13T17:12:26;14.80;99.90
20831;DHT22;10576;53.556;9.868;2023-03-13T17:14:51;14.60;99.90
20831;DHT22;10576;53.556;9.868;2023-03-13T17:17:20;14.90;99.90
20831;DHT22;10576;53.556;9.868;2023-03-13T17:19:46;14.70;99.90
20831;DHT22;10576;53.556;9.868;2023-03-13T17:22:14;14.60;99.90
20831;DHT22;10576;53.556;9.868;2023-03-13T17:27:13;14.80;99.90
20831;DHT22;10576;53.556;9.868;2023-03-13T17:32:05;14.50;99.90
20831;DHT22;10576;53.556;9.868;2023-03-13T17:49:17;14.70;99.90
20831;DHT22;10576;53.556;9.868;2023-03-13T17:59:09;14.20;99.90
20831;DHT22;10576;53.556;9.868;2023-03-13T18:01:36;14.40;99.90
20831;DHT22;10576;53.556;9.868;2023-03-13T18:09:04;14.30;99.90
20831;DHT22;10576;53.556;9.868;2023-03-13T18:16:30;14.20;99.90
20831;DHT22;10576;53.556;9.868;2023-03-13T18:23:54;13.80;99.90
20831;DHT22;10576;53.556;9.868;2023-03-13T18:26:25;14.00;99.90
20831;DHT22;10576;53.556;9.868;2023-03-13T18:31:34;14.10;99.90
20831;DHT22;10576;53.556;9.868;2023-03-13T18:34:02;13.50;99.90
20831;DHT22;10576;53.556;9.868;2023-03-13T18:43:46;13.50;99.90
20831;DHT22;10576;53.556;9.868;2023-03-13T18:48:50;13.40;99.90
20831;DHT22;10576;53.556;9.868;2023-03-13T18:51:17;13.10;99.90
20831;DHT22;10576;53.556;9.868;2023-03-13T18:53:44;13.20;99.90
20831;DHT22;10576;53.556;9.868;2023-03-13T18:56:25;13.10;99.90
20831;DHT22;10576;53.556;9.868;2023-03-13T18:58:53;13.10;99.90
20831;DHT22;10576;53.556;9.868;2023-03-13T19:01:21;12.80;99.90
20831;DHT22;10576;53.556;9.868;2023-03-13T19:03:48;12.70;99.90
20831;DHT22;10576;53.556;9.868;2023-03-13T19:08:42;12.90;99.90
20831;DHT22;10576;53.556;9.868;2023-03-13T19:11:13;12.70;99.90
20831;DHT22;10576;53.556;9.868;2023-03-13T19:18:44;12.60;99.90
20831;DHT22;10576;53.556;9.868;2023-03-13T19:21:22;12.90;99.90
20831;DHT22;10576;53.556;9.868;2023-03-13T19:23:48;12.80;99.90
20831;DHT22;10576;53.556;9.868;2023-03-13T19:26:34;12.70;99.90
20831;DHT22;10576;53.556;9.868;2023-03-13T19:31:26;12.60;99.90
20831;DHT22;10576;53.556;9.868;2023-03-13T19:36:23;12.10;99.90
20831;DHT22;10576;53.556;9.868;2023-03-13T19:38:49;12.60;99.90
20831;DHT22;10576;53.556;9.868;2023-03-13T19:43:41;12.10;99.90
20831;DHT22;10576;53.556;9.868;2023-03-13T19:46:26;11.90;99.90
20831;DHT22;10576;53.556;9.868;2023-03-13T19:53:50;11.80;99.90
20831;DHT22;10576;53.556;9.868;2023-03-13T19:58:44;11.70;99.90
20831;DHT22;10576;53.556;9.868;2023-03-13T20:01:10;11.80;99.90
20831;DHT22;10576;53.556;9.868;2023-03-13T20:03:36;11.70;99.90
20831;DHT22;10576;53.556;9.868;2023-03-13T20:06:02;11.80;99.90
20831;DHT22;10576;53.556;9.868;2023-03-13T20:08:27;11.40;99.90
20831;DHT22;10576;53.556;9.868;2023-03-13T20:13:19;11.20;99.90
20831;DHT22;10576;53.556;9.868;2023-03-13T20:15:45;11.40;99.90
20831;DHT22;10576;53.556;9.868;2023-03-13T20:18:10;11.50;99.90
20831;DHT22;10576;53.556;9.868;2023-03-13T20:23:02;11.30;99.90
20831;DHT22;10576;53.556;9.868;2023-03-13T20:25:27;11.20;99.90
20831;DHT22;10576;53.556;9.868;2023-03-13T20:27:53;11.10;99.90
20831;DHT22;10576;53.556;9.868;2023-03-13T20:32:45;11.30;99.90
20831;DHT22;10576;53.556;9.868;2023-03-13T20:37:39;11.00;99.90
20831;DHT22;10576;53.556;9.868;2023-03-13T20:40:06;10.90;99.90
20831;DHT22;10576;53.556;9.868;2023-03-13T20:42:32;11.40;99.90
20831;DHT22;10576;53.556;9.868;2023-03-13T20:44:58;11.20;99.90
20831;DHT22;10576;53.556;9.868;2023-03-13T20:52:15;10.90;99.90
20831;DHT22;10576;53.556;9.868;2023-03-13T20:54:41;11.00;99.90
20831;DHT22;10576;53.556;9.868;2023-03-13T20:57:07;10.90;99.90
20831;DHT22;10576;53.556;9.868;2023-03-13T21:02:02;10.80;99.90
20831;DHT22;10576;53.556;9.868;2023-03-13T21:06:53;10.80;99.90
20831;DHT22;10576;53.556;9.868;2023-03-13T21:11:45;10.60;99.90
20831;DHT22;10576;53.556;9.868;2023-03-13T21:14:10;10.60;99.90
20831;DHT22;10576;53.556;9.868;2023-03-13T21:16:36;10.60;99.90
20831;DHT22;10576;53.556;9.868;2023-03-13T21:19:02;10.80;99.90
20831;DHT22;10576;53.556;9.868;2023-03-13T21:21:27;10.60;99.90
20831;DHT22;10576;53.556;9.868;2023-03-13T21:23:53;10.60;99.90
20831;DHT22;10576;53.556;9.868;2023-03-13T21:28:46;10.60;99.90
20831;DHT22;10576;53.556;9.868;2023-03-13T21:31:14;10.60;99.90
20831;DHT22;10576;53.556;9.868;2023-03-13T21:33:41;10.40;99.90
20831;DHT22;10576;53.556;9.868;2023-03-13T21:38:34;10.50;99.90
20831;DHT22;10576;53.556;9.868;2023-03-13T21:41:00;10.20;99.90
20831;DHT22;10576;53.556;9.868;2023-03-13T21:43:25;10.50;99.90
20831;DHT22;10576;53.556;9.868;2023-03-13T21:48:18;10.20;99.90
20831;DHT22;10576;53.556;9.868;2023-03-13T21:53:10;10.30;99.90
20831;DHT22;10576;53.556;9.868;2023-03-13T21:58:04;10.50;99.90
20831;DHT22;10576;53.556;9.868;2023-03-13T22:02:55;10.30;99.90
20831;DHT22;10576;53.556;9.868;2023-03-13T22:05:21;10.20;99.90
20831;DHT22;10576;53.556;9.868;2023-03-13T22:07:47;10.50;99.90
20831;DHT22;10576;53.556;9.868;2023-03-13T22:12:38;10.20;99.90
20831;DHT22;10576;53.556;9.868;2023-03-13T22:15:05;10.30;99.90
20831;DHT22;10576;53.556;9.868;2023-03-13T22:22:23;10.30;99.90
20831;DHT22;10576;53.556;9.868;2023-03-13T22:27:16;10.60;99.90
20831;DHT22;10576;53.556;9.868;2023-03-13T22:37:02;10.50;99.90
20831;DHT22;10576;53.556;9.868;2023-03-13T22:41:53;10.70;99.90
20831;DHT22;10576;53.556;9.868;2023-03-13T22:46:45;10.60;99.90
20831;DHT22;10576;53.556;9.868;2023-03-13T23:01:21;10.60;99.90
20831;DHT22;10576;53.556;9.868;2023-03-13T23:06:16;10.60;99.90
20831;DHT22;10576;53.556;9.868;2023-03-13T23:11:07;11.00;99.90
20831;DHT22;10576;53.556;9.868;2023-03-13T23:18:26;10.60;99.90
20831;DHT22;10576;53.556;9.868;2023-03-13T23:20:52;10.70;99.90
20831;DHT22;10576;53.556;9.868;2023-03-13T23:23:18;10.40;99.90
20831;DHT22;10576;53.556;9.868;2023-03-13T23:28:10;10.70;99.90
20831;DHT22;10576;53.556;9.868;2023-03-13T23:33:02;10.50;99.90
20831;DHT22;10576;53.556;9.868;2023-03-13T23:37:53;10.30;99.90
20831;DHT22;10576;53.556;9.868;2023-03-13T23:40:22;10.50;99.90
20831;DHT22;10576;53.556;9.868;2023-03-13T23:42:49;10.40;99.90
20831;DHT22;10576;53.556;9.868;2023-03-13T23:47:42;10.20;99.90
20831;DHT22;10576;53.556;9.868;2023-03-13T23:50:13;10.40;99.90
20831;DHT22;10576;53.556;9.868;2023-03-13T23:52:40;10.50;99.90